sensor_id;sensor_type;location;lat;lon;timestamp;P1;durP1;ratioP1;P2;durP2;ratioP2
26656;SDS011;14279;50.010;8.260;2023-02-08T00:00:09;17.70;;;8.93;;
26656;SDS011;14279;50.010;8.260;2023-02-08T00:02:35;29.53;;;10.70;;
26656;SDS011;14279;50.010;8.260;2023-02-08T00:05:00;13.63;;;9.23;;
26656;SDS011;14279;50.010;8.260;2023-02-08T00:07:26;14.20;;;8.93;;
26656;SDS011;14279;50.010;8.260;2023-02-08T00:09:51;13.20;;;9.20;;
26656;SDS011;14279;50.010;8.260;2023-02-08T00:12:16;15.90;;;10.50;;
26656;SDS011;14279;50.010;8.260;2023-02-08T00:14:41;18.13;;;10.80;;
26656;SDS011;14279;50.010;8.260;2023-02-08T00:17:07;14.03;;;9.37;;
26656;SDS011;14279;50.010;8.260;2023-02-08T00:19:32;13.43;;;9.47;;
26656;SDS011;14279;50.010;8.260;2023-02-08T00:21:57;20.00;;;11.57;;
26656;SDS011;14279;50.010;8.260;2023-02-08T00:24:22;16.67;;;11.30;;
26656;SDS011;14279;50.010;8.260;2023-02-08T00:26:47;17.50;;;10.43;;
26656;SDS011;14279;50.010;8.260;2023-02-08T00:29:13;16.90;;;10.70;;
26656;SDS011;14279;50.010;8.260;2023-02-08T00:31:38;17.20;;;9.87;;
26656;SDS011;14279;50.010;8.260;2023-02-08T00:34:03;16.83;;;9.33;;
26656;SDS011;14279;50.010;8.260;2023-02-08T00:36:28;16.40;;;11.30;;
26656;SDS011;14279;50.010;8.260;2023-02-08T00:38:54;14.20;;;9.40;;
26656;SDS011;14279;50.010;8.260;2023-02-08T00:41:19;17.67;;;9.90;;
26656;SDS011;14279;50.010;8.260;2023-02-08T00:43:44;23.73;;;9.90;;
26656;SDS011;14279;50.010;8.260;2023-02-08T00:46:09;13.00;;;9.07;;
26656;SDS011;14279;50.010;8.260;2023-02-08T00:48:35;16.23;;;9.93;;
26656;SDS011;14279;50.010;8.260;2023-02-08T00:53:28;14.90;;;9.50;;
26656;SDS011;14279;50.010;8.260;2023-02-08T00:55:54;16.13;;;9.50;;
26656;SDS011;14279;50.010;8.260;2023-02-08T00:58:19;17.47;;;10.03;;
26656;SDS011;14279;50.010;8.260;2023-02-08T01:00:45;17.83;;;11.10;;
26656;SDS011;14279;50.010;8.260;2023-02-08T01:03:11;16.90;;;9.90;;
26656;SDS011;14279;50.010;8.260;2023-02-08T01:05:36;14.10;;;9.50;;
26656;SDS011;14279;50.010;8.260;2023-02-08T01:08:02;14.00;;;9.43;;
26656;SDS011;14279;50.010;8.260;2023-02-08T01:10:28;19.23;;;10.50;;
26656;SDS011;14279;50.010;8.260;2023-02-08T01:12:53;15.17;;;9.20;;
26656;SDS011;14279;50.010;8.260;2023-02-08T01:15:19;13.00;;;9.93;;
26656;SDS011;14279;50.010;8.260;2023-02-08T01:17:44;17.17;;;9.60;;
26656;SDS011;14279;50.010;8.260;2023-02-08T01:20:09;16.00;;;10.10;;
26656;SDS011;14279;50.010;8.260;2023-02-08T01:22:35;14.13;;;10.40;;
26656;SDS011;14279;50.010;8.260;2023-02-08T01:25:00;17.70;;;10.63;;
26656;SDS011;14279;50.010;8.260;2023-02-08T01:27:25;14.57;;;9.97;;
26656;SDS011;14279;50.010;8.260;2023-02-08T01:29:51;14.63;;;10.00;;
26656;SDS011;14279;50.010;8.260;2023-02-08T01:32:16;15.33;;;10.20;;
26656;SDS011;14279;50.010;8.260;2023-02-08T01:34:41;13.13;;;9.83;;
26656;SDS011;14279;50.010;8.260;2023-02-08T01:37:07;16.00;;;10.63;;
26656;SDS011;14279;50.010;8.260;2023-02-08T01:39:32;16.80;;;9.87;;
26656;SDS011;14279;50.010;8.260;2023-02-08T01:41:57;18.13;;;10.33;;
26656;SDS011;14279;50.010;8.260;2023-02-08T01:47:25;30.40;;;10.43;;
26656;SDS011;14279;50.010;8.260;2023-02-08T01:49:50;18.07;;;9.23;;
26656;SDS011;14279;50.010;8.260;2023-02-08T01:52:17;13.73;;;9.50;;
26656;SDS011;14279;50.010;8.260;2023-02-08T01:54:52;17.70;;;9.63;;
26656;SDS011;14279;50.010;8.260;2023-02-08T01:57:23;15.63;;;9.57;;
26656;SDS011;14279;50.010;8.260;2023-02-08T01:59:51;18.33;;;9.70;;
26656;SDS011;14279;50.010;8.260;2023-02-08T02:02:21;20.93;;;10.93;;
26656;SDS011;14279;50.010;8.260;2023-02-08T02:04:47;15.00;;;9.77;;
26656;SDS011;14279;50.010;8.260;2023-02-08T02:07:15;15.23;;;9.40;;
26656;SDS011;14279;50.010;8.260;2023-02-08T02:09:52;16.70;;;9.83;;
26656;SDS011;14279;50.010;8.260;2023-02-08T02:12:23;15.80;;;9.60;;
26656;SDS011;14279;50.010;8.260;2023-02-08T02:14:49;18.03;;;9.87;;
26656;SDS011;14279;50.010;8.260;2023-02-08T02:17:15;15.73;;;9.33;;
26656;SDS011;14279;50.010;8.260;2023-02-08T02:19:48;14.83;;;9.60;;
26656;SDS011;14279;50.010;8.260;2023-02-08T02:39:39;16.63;;;9.87;;
26656;SDS011;14279;50.010;8.260;2023-02-08T02:42:13;15.37;;;9.23;;
26656;SDS011;14279;50.010;8.260;2023-02-08T02:45:17;16.70;;;9.60;;
26656;SDS011;14279;50.010;8.260;2023-02-08T02:48:05;16.63;;;9.63;;
26656;SDS011;14279;50.010;8.260;2023-02-08T02:50:39;15.37;;;9.13;;
26656;SDS011;14279;50.010;8.260;2023-02-08T02:55:46;16.63;;;9.40;;
26656;SDS011;14279;50.010;8.260;2023-02-08T02:58:20;14.33;;;9.17;;
26656;SDS011;14279;50.010;8.260;2023-02-08T03:00:51;14.13;;;8.57;;
26656;SDS011;14279;50.010;8.260;2023-02-08T03:03:22;12.67;;;9.20;;
26656;SDS011;14279;50.010;8.260;2023-02-08T03:05:49;13.60;;;8.10;;
26656;SDS011;14279;50.010;8.260;2023-02-08T03:16:41;11.10;;;7.47;;
26656;SDS011;14279;50.010;8.260;2023-02-08T03:22:16;8.33;;;6.10;;
26656;SDS011;14279;50.010;8.260;2023-02-08T03:25:08;7.03;;;5.47;;
26656;SDS011;14279;50.010;8.260;2023-02-08T03:30:29;10.10;;;5.90;;
26656;SDS011;14279;50.010;8.260;2023-02-08T03:33:06;8.87;;;5.57;;
26656;SDS011;14279;50.010;8.260;2023-02-08T03:38:23;7.70;;;5.40;;
26656;SDS011;14279;50.010;8.260;2023-02-08T03:40:51;8.27;;;5.40;;
26656;SDS011;14279;50.010;8.260;2023-02-08T03:43:24;7.10;;;5.20;;
26656;SDS011;14279;50.010;8.260;2023-02-08T03:46:02;12.80;;;6.30;;
26656;SDS011;14279;50.010;8.260;2023-02-08T03:48:28;9.53;;;5.73;;
26656;SDS011;14279;50.010;8.260;2023-02-08T03:50:57;8.73;;;5.07;;
26656;SDS011;14279;50.010;8.260;2023-02-08T03:53:25;6.80;;;5.40;;
26656;SDS011;14279;50.010;8.260;2023-02-08T03:55:54;6.17;;;4.80;;
26656;SDS011;14279;50.010;8.260;2023-02-08T04:01:47;8.80;;;6.10;;
26656;SDS011;14279;50.010;8.260;2023-02-08T04:04:19;6.90;;;5.80;;
26656;SDS011;14279;50.010;8.260;2023-02-08T04:06:45;7.10;;;5.20;;
26656;SDS011;14279;50.010;8.260;2023-02-08T04:09:10;8.53;;;5.23;;
26656;SDS011;14279;50.010;8.260;2023-02-08T04:11:36;11.00;;;6.03;;
26656;SDS011;14279;50.010;8.260;2023-02-08T04:14:01;11.13;;;5.83;;
26656;SDS011;14279;50.010;8.260;2023-02-08T04:16:26;11.43;;;5.67;;
26656;SDS011;14279;50.010;8.260;2023-02-08T04:18:51;10.30;;;6.40;;
26656;SDS011;14279;50.010;8.260;2023-02-08T04:21:17;6.80;;;5.43;;
26656;SDS011;14279;50.010;8.260;2023-02-08T04:23:42;7.93;;;5.40;;
26656;SDS011;14279;50.010;8.260;2023-02-08T04:26:07;8.97;;;5.60;;
26656;SDS011;14279;50.010;8.260;2023-02-08T04:28:33;8.40;;;5.83;;
26656;SDS011;14279;50.010;8.260;2023-02-08T04:30:59;9.30;;;6.00;;
26656;SDS011;14279;50.010;8.260;2023-02-08T04:33:24;6.87;;;4.80;;
26656;SDS011;14279;50.010;8.260;2023-02-08T04:35:49;6.77;;;5.33;;
26656;SDS011;14279;50.010;8.260;2023-02-08T04:38:15;7.57;;;4.90;;
26656;SDS011;14279;50.010;8.260;2023-02-08T04:40:40;8.60;;;5.60;;
26656;SDS011;14279;50.010;8.260;2023-02-08T04:43:06;6.33;;;5.27;;
26656;SDS011;14279;50.010;8.260;2023-02-08T04:45:31;8.17;;;5.97;;
26656;SDS011;14279;50.010;8.260;2023-02-08T04:47:57;7.10;;;5.43;;
26656;SDS011;14279;50.010;8.260;2023-02-08T04:50:23;6.30;;;5.20;;
26656;SDS011;14279;50.010;8.260;2023-02-08T04:52:48;12.57;;;6.23;;
26656;SDS011;14279;50.010;8.260;2023-02-08T04:55:13;7.90;;;5.17;;
26656;SDS011;14279;50.010;8.260;2023-02-08T04:57:38;8.50;;;5.43;;
26656;SDS011;14279;50.010;8.260;2023-02-08T05:00:04;7.90;;;5.53;;
26656;SDS011;14279;50.010;8.260;2023-02-08T05:02:29;9.47;;;5.97;;
26656;SDS011;14279;50.010;8.260;2023-02-08T05:04:54;7.20;;;5.47;;
26656;SDS011;14279;50.010;8.260;2023-02-08T05:07:20;10.17;;;6.10;;
26656;SDS011;14279;50.010;8.260;2023-02-08T05:09:45;6.40;;;5.33;;
26656;SDS011;14279;50.010;8.260;2023-02-08T05:12:10;10.17;;;5.73;;
26656;SDS011;14279;50.010;8.260;2023-02-08T05:14:36;13.53;;;5.37;;
26656;SDS011;14279;50.010;8.260;2023-02-08T05:17:01;8.07;;;5.53;;
26656;SDS011;14279;50.010;8.260;2023-02-08T05:19:26;7.43;;;5.50;;
26656;SDS011;14279;50.010;8.260;2023-02-08T05:21:52;6.57;;;5.37;;
26656;SDS011;14279;50.010;8.260;2023-02-08T05:24:17;11.27;;;5.60;;
26656;SDS011;14279;50.010;8.260;2023-02-08T05:26:42;8.70;;;6.10;;
26656;SDS011;14279;50.010;8.260;2023-02-08T05:29:07;8.30;;;5.50;;
26656;SDS011;14279;50.010;8.260;2023-02-08T05:31:33;9.33;;;5.77;;
26656;SDS011;14279;50.010;8.260;2023-02-08T05:33:58;6.93;;;5.30;;
26656;SDS011;14279;50.010;8.260;2023-02-08T05:36:23;8.60;;;5.77;;
26656;SDS011;14279;50.010;8.260;2023-02-08T05:38:48;11.00;;;5.47;;
26656;SDS011;14279;50.010;8.260;2023-02-08T05:41:14;16.67;;;6.40;;
26656;SDS011;14279;50.010;8.260;2023-02-08T05:43:40;7.70;;;5.60;;
26656;SDS011;14279;50.010;8.260;2023-02-08T05:46:05;8.13;;;6.60;;
26656;SDS011;14279;50.010;8.260;2023-02-08T05:48:31;12.57;;;6.43;;
26656;SDS011;14279;50.010;8.260;2023-02-08T05:50:56;9.93;;;5.30;;
26656;SDS011;14279;50.010;8.260;2023-02-08T05:53:23;12.53;;;6.00;;
26656;SDS011;14279;50.010;8.260;2023-02-08T05:55:48;9.53;;;6.03;;
26656;SDS011;14279;50.010;8.260;2023-02-08T05:58:14;10.53;;;6.20;;
26656;SDS011;14279;50.010;8.260;2023-02-08T06:00:40;8.33;;;6.10;;
26656;SDS011;14279;50.010;8.260;2023-02-08T06:03:05;7.20;;;5.60;;
26656;SDS011;14279;50.010;8.260;2023-02-08T06:05:30;10.70;;;6.90;;
26656;SDS011;14279;50.010;8.260;2023-02-08T06:07:56;11.53;;;6.40;;
26656;SDS011;14279;50.010;8.260;2023-02-08T06:10:21;7.70;;;5.93;;
26656;SDS011;14279;50.010;8.260;2023-02-08T06:12:46;8.63;;;6.00;;
26656;SDS011;14279;50.010;8.260;2023-02-08T06:15:11;8.27;;;5.67;;
26656;SDS011;14279;50.010;8.260;2023-02-08T06:17:37;7.50;;;5.60;;
26656;SDS011;14279;50.010;8.260;2023-02-08T06:20:02;8.60;;;6.27;;
26656;SDS011;14279;50.010;8.260;2023-02-08T06:22:28;9.20;;;6.20;;
26656;SDS011;14279;50.010;8.260;2023-02-08T06:24:53;9.80;;;6.83;;
26656;SDS011;14279;50.010;8.260;2023-02-08T06:27:18;8.73;;;5.57;;
26656;SDS011;14279;50.010;8.260;2023-02-08T06:29:44;9.13;;;6.23;;
26656;SDS011;14279;50.010;8.260;2023-02-08T06:32:09;9.63;;;6.17;;
26656;SDS011;14279;50.010;8.260;2023-02-08T06:34:35;7.93;;;5.53;;
26656;SDS011;14279;50.010;8.260;2023-02-08T06:37:00;18.27;;;6.30;;
26656;SDS011;14279;50.010;8.260;2023-02-08T06:39:26;7.00;;;5.43;;
26656;SDS011;14279;50.010;8.260;2023-02-08T06:41:52;10.17;;;5.80;;
26656;SDS011;14279;50.010;8.260;2023-02-08T06:44:17;9.90;;;6.37;;
26656;SDS011;14279;50.010;8.260;2023-02-08T06:46:43;8.07;;;5.63;;
26656;SDS011;14279;50.010;8.260;2023-02-08T06:49:08;7.10;;;5.80;;
26656;SDS011;14279;50.010;8.260;2023-02-08T06:51:34;10.40;;;5.50;;
26656;SDS011;14279;50.010;8.260;2023-02-08T06:53:59;13.33;;;6.10;;
26656;SDS011;14279;50.010;8.260;2023-02-08T06:56:25;8.87;;;5.40;;
26656;SDS011;14279;50.010;8.260;2023-02-08T06:58:50;7.93;;;5.60;;
26656;SDS011;14279;50.010;8.260;2023-02-08T07:01:15;8.37;;;5.50;;
26656;SDS011;14279;50.010;8.260;2023-02-08T07:03:40;9.03;;;5.97;;
26656;SDS011;14279;50.010;8.260;2023-02-08T07:06:12;9.03;;;5.47;;
26656;SDS011;14279;50.010;8.260;2023-02-08T07:08:39;8.50;;;5.87;;
26656;SDS011;14279;50.010;8.260;2023-02-08T07:11:06;11.03;;;6.40;;
26656;SDS011;14279;50.010;8.260;2023-02-08T07:13:36;7.27;;;4.93;;
26656;SDS011;14279;50.010;8.260;2023-02-08T07:16:02;8.87;;;6.23;;
26656;SDS011;14279;50.010;8.260;2023-02-08T07:18:28;13.37;;;5.80;;
26656;SDS011;14279;50.010;8.260;2023-02-08T07:20:53;7.87;;;5.67;;
26656;SDS011;14279;50.010;8.260;2023-02-08T07:23:19;10.37;;;6.40;;
26656;SDS011;14279;50.010;8.260;2023-02-08T07:25:44;10.20;;;6.80;;
26656;SDS011;14279;50.010;8.260;2023-02-08T07:28:09;13.20;;;6.13;;
26656;SDS011;14279;50.010;8.260;2023-02-08T07:30:35;10.27;;;6.47;;
26656;SDS011;14279;50.010;8.260;2023-02-08T07:33:00;11.43;;;5.80;;
26656;SDS011;14279;50.010;8.260;2023-02-08T07:35:25;14.80;;;5.83;;
26656;SDS011;14279;50.010;8.260;2023-02-08T07:37:51;12.80;;;6.20;;
26656;SDS011;14279;50.010;8.260;2023-02-08T07:40:16;19.33;;;6.40;;
26656;SDS011;14279;50.010;8.260;2023-02-08T07:42:41;8.70;;;6.40;;
26656;SDS011;14279;50.010;8.260;2023-02-08T07:45:07;10.03;;;5.97;;
26656;SDS011;14279;50.010;8.260;2023-02-08T07:47:32;24.03;;;6.90;;
26656;SDS011;14279;50.010;8.260;2023-02-08T07:49:58;14.50;;;6.70;;
26656;SDS011;14279;50.010;8.260;2023-02-08T07:52:23;8.70;;;6.27;;
26656;SDS011;14279;50.010;8.260;2023-02-08T07:54:48;17.20;;;6.60;;
26656;SDS011;14279;50.010;8.260;2023-02-08T07:57:13;13.13;;;6.93;;
26656;SDS011;14279;50.010;8.260;2023-02-08T07:59:45;17.57;;;8.00;;
26656;SDS011;14279;50.010;8.260;2023-02-08T08:02:10;12.13;;;6.50;;
26656;SDS011;14279;50.010;8.260;2023-02-08T08:04:38;12.57;;;6.80;;
26656;SDS011;14279;50.010;8.260;2023-02-08T08:07:03;12.17;;;7.10;;
26656;SDS011;14279;50.010;8.260;2023-02-08T08:09:28;12.07;;;7.50;;
26656;SDS011;14279;50.010;8.260;2023-02-08T08:11:54;11.97;;;6.87;;
26656;SDS011;14279;50.010;8.260;2023-02-08T08:14:19;11.00;;;7.20;;
26656;SDS011;14279;50.010;8.260;2023-02-08T08:16:44;15.30;;;7.07;;
26656;SDS011;14279;50.010;8.260;2023-02-08T08:19:09;11.07;;;7.77;;
26656;SDS011;14279;50.010;8.260;2023-02-08T08:21:35;10.27;;;6.93;;
26656;SDS011;14279;50.010;8.260;2023-02-08T08:24:00;12.90;;;7.60;;
26656;SDS011;14279;50.010;8.260;2023-02-08T08:26:25;14.10;;;8.40;;
26656;SDS011;14279;50.010;8.260;2023-02-08T08:28:50;12.70;;;7.00;;
26656;SDS011;14279;50.010;8.260;2023-02-08T08:31:17;14.70;;;7.83;;
26656;SDS011;14279;50.010;8.260;2023-02-08T08:33:44;12.67;;;7.03;;
26656;SDS011;14279;50.010;8.260;2023-02-08T08:36:10;13.43;;;7.60;;
26656;SDS011;14279;50.010;8.260;2023-02-08T08:38:35;11.10;;;7.10;;
26656;SDS011;14279;50.010;8.260;2023-02-08T08:41:07;13.47;;;7.80;;
26656;SDS011;14279;50.010;8.260;2023-02-08T08:43:38;10.43;;;7.27;;
26656;SDS011;14279;50.010;8.260;2023-02-08T08:46:04;16.10;;;8.53;;
26656;SDS011;14279;50.010;8.260;2023-02-08T08:48:30;8.80;;;6.20;;
26656;SDS011;14279;50.010;8.260;2023-02-08T08:50:57;13.03;;;7.77;;
26656;SDS011;14279;50.010;8.260;2023-02-08T08:53:22;13.37;;;7.37;;
26656;SDS011;14279;50.010;8.260;2023-02-08T08:55:47;11.57;;;7.57;;
26656;SDS011;14279;50.010;8.260;2023-02-08T08:58:12;15.80;;;7.63;;
26656;SDS011;14279;50.010;8.260;2023-02-08T09:00:38;11.57;;;7.63;;
26656;SDS011;14279;50.010;8.260;2023-02-08T09:03:03;20.13;;;7.90;;
26656;SDS011;14279;50.010;8.260;2023-02-08T09:05:28;11.23;;;7.63;;
26656;SDS011;14279;50.010;8.260;2023-02-08T09:07:53;13.73;;;7.50;;
26656;SDS011;14279;50.010;8.260;2023-02-08T09:10:19;13.80;;;8.20;;
26656;SDS011;14279;50.010;8.260;2023-02-08T09:12:44;14.63;;;8.23;;
26656;SDS011;14279;50.010;8.260;2023-02-08T09:15:09;12.03;;;7.60;;
26656;SDS011;14279;50.010;8.260;2023-02-08T09:17:35;13.13;;;7.80;;
26656;SDS011;14279;50.010;8.260;2023-02-08T09:20:01;14.13;;;8.67;;
26656;SDS011;14279;50.010;8.260;2023-02-08T09:22:26;13.50;;;8.43;;
26656;SDS011;14279;50.010;8.260;2023-02-08T09:24:51;12.63;;;7.37;;
26656;SDS011;14279;50.010;8.260;2023-02-08T09:27:17;11.13;;;7.80;;
26656;SDS011;14279;50.010;8.260;2023-02-08T09:29:43;15.10;;;8.10;;
26656;SDS011;14279;50.010;8.260;2023-02-08T09:32:08;12.20;;;6.80;;
26656;SDS011;14279;50.010;8.260;2023-02-08T09:34:33;17.37;;;8.20;;
26656;SDS011;14279;50.010;8.260;2023-02-08T09:36:58;14.07;;;8.40;;
26656;SDS011;14279;50.010;8.260;2023-02-08T09:39:24;15.97;;;8.73;;
26656;SDS011;14279;50.010;8.260;2023-02-08T09:41:58;11.80;;;8.03;;
26656;SDS011;14279;50.010;8.260;2023-02-08T09:44:54;15.77;;;8.60;;
26656;SDS011;14279;50.010;8.260;2023-02-08T09:47:59;14.10;;;8.20;;
26656;SDS011;14279;50.010;8.260;2023-02-08T09:50:41;12.83;;;8.20;;
26656;SDS011;14279;50.010;8.260;2023-02-08T09:53:17;17.57;;;7.63;;
26656;SDS011;14279;50.010;8.260;2023-02-08T09:55:50;13.90;;;9.50;;
26656;SDS011;14279;50.010;8.260;2023-02-08T09:58:22;14.60;;;9.17;;
26656;SDS011;14279;50.010;8.260;2023-02-08T10:00:50;17.20;;;8.60;;
26656;SDS011;14279;50.010;8.260;2023-02-08T10:03:22;15.97;;;9.13;;
26656;SDS011;14279;50.010;8.260;2023-02-08T10:05:53;15.20;;;9.67;;
26656;SDS011;14279;50.010;8.260;2023-02-08T10:08:19;16.77;;;9.30;;
26656;SDS011;14279;50.010;8.260;2023-02-08T10:10:48;16.47;;;9.63;;
26656;SDS011;14279;50.010;8.260;2023-02-08T10:13:29;16.63;;;8.67;;
26656;SDS011;14279;50.010;8.260;2023-02-08T10:15:58;15.10;;;9.00;;
26656;SDS011;14279;50.010;8.260;2023-02-08T10:26:47;15.83;;;9.83;;
26656;SDS011;14279;50.010;8.260;2023-02-08T10:29:26;14.77;;;9.47;;
26656;SDS011;14279;50.010;8.260;2023-02-08T10:32:20;14.00;;;9.37;;
26656;SDS011;14279;50.010;8.260;2023-02-08T10:34:55;17.10;;;10.03;;
26656;SDS011;14279;50.010;8.260;2023-02-08T10:37:35;17.53;;;10.73;;
26656;SDS011;14279;50.010;8.260;2023-02-08T10:42:45;18.77;;;10.73;;
26656;SDS011;14279;50.010;8.260;2023-02-08T10:47:59;16.50;;;9.47;;
26656;SDS011;14279;50.010;8.260;2023-02-08T10:50:39;17.60;;;10.47;;
26656;SDS011;14279;50.010;8.260;2023-02-08T10:53:09;14.50;;;9.10;;
26656;SDS011;14279;50.010;8.260;2023-02-08T10:55:39;15.13;;;9.47;;
26656;SDS011;14279;50.010;8.260;2023-02-08T10:58:06;17.57;;;10.10;;
26656;SDS011;14279;50.010;8.260;2023-02-08T11:00:36;15.80;;;9.90;;
26656;SDS011;14279;50.010;8.260;2023-02-08T11:03:11;17.63;;;10.00;;
26656;SDS011;14279;50.010;8.260;2023-02-08T11:05:40;15.33;;;9.57;;
26656;SDS011;14279;50.010;8.260;2023-02-08T11:10:35;13.77;;;9.43;;
26656;SDS011;14279;50.010;8.260;2023-02-08T11:15:56;16.77;;;9.90;;
26656;SDS011;14279;50.010;8.260;2023-02-08T11:18:26;15.23;;;9.27;;
26656;SDS011;14279;50.010;8.260;2023-02-08T11:26:39;15.23;;;8.13;;
26656;SDS011;14279;50.010;8.260;2023-02-08T11:29:18;13.73;;;8.53;;
26656;SDS011;14279;50.010;8.260;2023-02-08T11:36:58;12.03;;;8.17;;
26656;SDS011;14279;50.010;8.260;2023-02-08T11:39:27;15.10;;;9.50;;
26656;SDS011;14279;50.010;8.260;2023-02-08T11:41:58;16.70;;;9.40;;
26656;SDS011;14279;50.010;8.260;2023-02-08T11:44:26;13.23;;;9.10;;
26656;SDS011;14279;50.010;8.260;2023-02-08T11:46:56;17.60;;;9.63;;
26656;SDS011;14279;50.010;8.260;2023-02-08T11:49:25;16.10;;;9.03;;
26656;SDS011;14279;50.010;8.260;2023-02-08T11:51:54;18.40;;;9.97;;
26656;SDS011;14279;50.010;8.260;2023-02-08T11:54:34;16.80;;;8.90;;
26656;SDS011;14279;50.010;8.260;2023-02-08T11:57:09;14.30;;;9.23;;
26656;SDS011;14279;50.010;8.260;2023-02-08T11:59:36;13.53;;;8.87;;
26656;SDS011;14279;50.010;8.260;2023-02-08T12:04:54;13.97;;;9.63;;
26656;SDS011;14279;50.010;8.260;2023-02-08T12:07:32;14.20;;;9.33;;
26656;SDS011;14279;50.010;8.260;2023-02-08T12:12:52;16.37;;;10.70;;
26656;SDS011;14279;50.010;8.260;2023-02-08T12:18:19;15.63;;;10.10;;
26656;SDS011;14279;50.010;8.260;2023-02-08T12:23:52;16.17;;;9.73;;
26656;SDS011;14279;50.010;8.260;2023-02-08T12:26:32;14.27;;;8.50;;
26656;SDS011;14279;50.010;8.260;2023-02-08T12:29:12;17.93;;;8.57;;
26656;SDS011;14279;50.010;8.260;2023-02-08T12:43:40;15.77;;;9.73;;
26656;SDS011;14279;50.010;8.260;2023-02-08T12:51:56;16.30;;;9.67;;
26656;SDS011;14279;50.010;8.260;2023-02-08T12:54:37;17.77;;;10.30;;
26656;SDS011;14279;50.010;8.260;2023-02-08T12:57:10;15.83;;;9.47;;
26656;SDS011;14279;50.010;8.260;2023-02-08T12:59:43;19.73;;;10.10;;
26656;SDS011;14279;50.010;8.260;2023-02-08T13:02:14;15.40;;;8.33;;
26656;SDS011;14279;50.010;8.260;2023-02-08T13:04:44;15.50;;;9.30;;
26656;SDS011;14279;50.010;8.260;2023-02-08T13:07:24;17.00;;;10.13;;
26656;SDS011;14279;50.010;8.260;2023-02-08T13:12:35;14.67;;;9.00;;
26656;SDS011;14279;50.010;8.260;2023-02-08T13:15:12;18.03;;;9.37;;
26656;SDS011;14279;50.010;8.260;2023-02-08T13:17:46;24.43;;;10.00;;
26656;SDS011;14279;50.010;8.260;2023-02-08T13:26:02;18.40;;;10.40;;
26656;SDS011;14279;50.010;8.260;2023-02-08T13:28:32;20.20;;;9.87;;
26656;SDS011;14279;50.010;8.260;2023-02-08T13:30:59;15.43;;;10.13;;
26656;SDS011;14279;50.010;8.260;2023-02-08T13:33:38;17.83;;;9.60;;
26656;SDS011;14279;50.010;8.260;2023-02-08T13:36:19;12.57;;;8.67;;
26656;SDS011;14279;50.010;8.260;2023-02-08T13:38:47;16.87;;;9.80;;
26656;SDS011;14279;50.010;8.260;2023-02-08T13:41:14;16.10;;;10.40;;
26656;SDS011;14279;50.010;8.260;2023-02-08T13:46:34;17.90;;;9.57;;
26656;SDS011;14279;50.010;8.260;2023-02-08T13:49:02;17.73;;;8.23;;
26656;SDS011;14279;50.010;8.260;2023-02-08T13:59:35;16.40;;;8.80;;
26656;SDS011;14279;50.010;8.260;2023-02-08T14:04:40;12.70;;;8.83;;
26656;SDS011;14279;50.010;8.260;2023-02-08T14:07:11;15.53;;;9.07;;
26656;SDS011;14279;50.010;8.260;2023-02-08T14:10:16;16.40;;;9.83;;
26656;SDS011;14279;50.010;8.260;2023-02-08T14:12:59;16.40;;;9.80;;
26656;SDS011;14279;50.010;8.260;2023-02-08T14:15:32;14.47;;;9.70;;
26656;SDS011;14279;50.010;8.260;2023-02-08T14:18:00;27.20;;;10.03;;
26656;SDS011;14279;50.010;8.260;2023-02-08T14:20:28;14.53;;;9.13;;
26656;SDS011;14279;50.010;8.260;2023-02-08T14:23:05;15.80;;;9.50;;
26656;SDS011;14279;50.010;8.260;2023-02-08T14:25:45;14.37;;;8.40;;
26656;SDS011;14279;50.010;8.260;2023-02-08T14:28:47;15.37;;;8.30;;
26656;SDS011;14279;50.010;8.260;2023-02-08T14:31:09;15.23;;;8.70;;
26656;SDS011;14279;50.010;8.260;2023-02-08T14:33:37;14.33;;;8.30;;
26656;SDS011;14279;50.010;8.260;2023-02-08T14:36:13;21.07;;;8.97;;
26656;SDS011;14279;50.010;8.260;2023-02-08T14:38:51;21.03;;;9.30;;
26656;SDS011;14279;50.010;8.260;2023-02-08T14:47:02;16.67;;;8.73;;
26656;SDS011;14279;50.010;8.260;2023-02-08T14:49:34;20.67;;;8.73;;
26656;SDS011;14279;50.010;8.260;2023-02-08T14:52:04;12.50;;;8.53;;
26656;SDS011;14279;50.010;8.260;2023-02-08T14:57:17;19.93;;;8.20;;
26656;SDS011;14279;50.010;8.260;2023-02-08T14:59:53;12.23;;;8.37;;
26656;SDS011;14279;50.010;8.260;2023-02-08T15:02:22;15.37;;;8.57;;
26656;SDS011;14279;50.010;8.260;2023-02-08T15:04:50;13.60;;;7.90;;
26656;SDS011;14279;50.010;8.260;2023-02-08T15:07:21;11.03;;;7.90;;
26656;SDS011;14279;50.010;8.260;2023-02-08T15:10:13;17.47;;;8.80;;
26656;SDS011;14279;50.010;8.260;2023-02-08T15:12:42;13.03;;;7.70;;
26656;SDS011;14279;50.010;8.260;2023-02-08T15:15:42;13.67;;;7.70;;
26656;SDS011;14279;50.010;8.260;2023-02-08T15:18:03;24.13;;;7.80;;
26656;SDS011;14279;50.010;8.260;2023-02-08T15:20:34;30.33;;;7.93;;
26656;SDS011;14279;50.010;8.260;2023-02-08T15:23:04;9.47;;;7.43;;
26656;SDS011;14279;50.010;8.260;2023-02-08T15:25:41;14.53;;;7.40;;
26656;SDS011;14279;50.010;8.260;2023-02-08T15:28:18;13.73;;;7.50;;
26656;SDS011;14279;50.010;8.260;2023-02-08T15:30:51;10.27;;;7.07;;
26656;SDS011;14279;50.010;8.260;2023-02-08T15:33:23;15.57;;;7.57;;
26656;SDS011;14279;50.010;8.260;2023-02-08T15:35:54;12.47;;;6.00;;
26656;SDS011;14279;50.010;8.260;2023-02-08T15:38:22;11.47;;;7.47;;
26656;SDS011;14279;50.010;8.260;2023-02-08T15:41:07;10.53;;;7.20;;
26656;SDS011;14279;50.010;8.260;2023-02-08T15:43:36;13.97;;;6.80;;
26656;SDS011;14279;50.010;8.260;2023-02-08T15:46:06;9.60;;;6.10;;
26656;SDS011;14279;50.010;8.260;2023-02-08T15:48:42;9.77;;;6.90;;
26656;SDS011;14279;50.010;8.260;2023-02-08T15:51:10;13.77;;;8.07;;
26656;SDS011;14279;50.010;8.260;2023-02-08T15:53:39;10.70;;;6.87;;
26656;SDS011;14279;50.010;8.260;2023-02-08T15:56:07;11.20;;;8.20;;
26656;SDS011;14279;50.010;8.260;2023-02-08T15:58:37;13.20;;;7.17;;
26656;SDS011;14279;50.010;8.260;2023-02-08T16:01:06;11.20;;;7.33;;
26656;SDS011;14279;50.010;8.260;2023-02-08T16:03:33;12.23;;;7.70;;
26656;SDS011;14279;50.010;8.260;2023-02-08T16:06:01;12.93;;;7.67;;
26656;SDS011;14279;50.010;8.260;2023-02-08T16:08:30;11.30;;;7.77;;
26656;SDS011;14279;50.010;8.260;2023-02-08T16:10:58;13.20;;;7.50;;
26656;SDS011;14279;50.010;8.260;2023-02-08T16:13:32;13.23;;;7.20;;
26656;SDS011;14279;50.010;8.260;2023-02-08T16:18:43;12.87;;;8.03;;
26656;SDS011;14279;50.010;8.260;2023-02-08T16:24:15;14.77;;;7.20;;
26656;SDS011;14279;50.010;8.260;2023-02-08T16:29:30;13.50;;;7.37;;
26656;SDS011;14279;50.010;8.260;2023-02-08T16:32:03;13.30;;;7.23;;
26656;SDS011;14279;50.010;8.260;2023-02-08T16:34:31;11.73;;;6.67;;
26656;SDS011;14279;50.010;8.260;2023-02-08T16:36:58;11.27;;;6.70;;
26656;SDS011;14279;50.010;8.260;2023-02-08T16:39:35;13.47;;;6.77;;
26656;SDS011;14279;50.010;8.260;2023-02-08T16:42:18;14.03;;;6.77;;
26656;SDS011;14279;50.010;8.260;2023-02-08T16:47:48;10.17;;;6.53;;
26656;SDS011;14279;50.010;8.260;2023-02-08T16:50:22;8.90;;;6.80;;
26656;SDS011;14279;50.010;8.260;2023-02-08T16:52:54;11.57;;;6.23;;
26656;SDS011;14279;50.010;8.260;2023-02-08T16:55:24;15.13;;;6.40;;
26656;SDS011;14279;50.010;8.260;2023-02-08T16:57:51;12.23;;;6.93;;
26656;SDS011;14279;50.010;8.260;2023-02-08T17:00:21;14.07;;;6.60;;
26656;SDS011;14279;50.010;8.260;2023-02-08T17:02:55;12.80;;;6.40;;
26656;SDS011;14279;50.010;8.260;2023-02-08T17:05:22;11.57;;;6.47;;
26656;SDS011;14279;50.010;8.260;2023-02-08T17:07:50;11.53;;;6.67;;
26656;SDS011;14279;50.010;8.260;2023-02-08T17:10:20;9.63;;;6.13;;
26656;SDS011;14279;50.010;8.260;2023-02-08T17:12:54;10.83;;;6.53;;